createdAt,value
2023-05-24T16:56:18.044Z,18.92
2023-05-24T16:58:44.726Z,14.13
2023-05-24T17:01:11.687Z,14.55
2023-05-24T17:03:38.598Z,14.90
2023-05-24T17:06:05.496Z,17.25
2023-05-24T17:08:35.334Z,17.42
2023-05-24T17:11:06.472Z,15.38
2023-05-24T17:13:33.483Z,14.85
2023-05-24T17:16:00.594Z,18.58
2023-05-24T17:18:30.309Z,17.98
2023-05-24T17:21:06.996Z,17.23
2023-05-24T17:23:36.717Z,13.95
2023-05-24T17:26:04.413Z,15.43
2023-05-24T17:28:31.338Z,16.10
2023-05-24T17:30:59.729Z,12.25
2023-05-24T17:33:28.834Z,15.70
2023-05-24T17:35:56.745Z,18.08
2023-05-24T17:38:26.828Z,12.90
2023-05-24T17:40:57.092Z,12.35
2023-05-24T17:43:25.134Z,18.90
2023-05-24T17:45:53.858Z,22.67
2023-05-24T17:48:20.502Z,16.20
2023-05-24T17:50:47.149Z,12.02
2023-05-24T17:53:30.433Z,14.85
2023-05-24T17:55:58.345Z,13.63
2023-05-24T17:58:25.782Z,16.58
2023-05-24T18:00:52.979Z,17.50
2023-05-24T18:03:22.038Z,18.77
2023-05-24T18:05:48.704Z,19.92
2023-05-24T18:08:15.549Z,20.70
2023-05-24T18:10:42.419Z,22.33
2023-05-24T18:13:09.560Z,22.20
2023-05-24T18:15:36.746Z,23.67
2023-05-24T18:18:03.683Z,28.75
2023-05-24T18:20:31.244Z,22.25
2023-05-24T18:22:57.996Z,18.27
2023-05-24T18:25:24.722Z,21.15
2023-05-24T18:27:51.772Z,19.23
2023-05-24T18:30:18.606Z,19.38
2023-05-24T18:33:02.731Z,24.33
2023-05-24T18:35:34.879Z,20.88
2023-05-24T18:38:01.713Z,17.33
2023-05-24T18:40:28.471Z,16.63
2023-05-24T18:43:05.529Z,16.27
2023-05-24T18:45:32.182Z,15.20
2023-05-24T18:47:59.017Z,15.85
2023-05-24T18:50:26.565Z,17.55
2023-05-24T18:52:54.304Z,14.90
2023-05-24T18:55:20.927Z,14.05
2023-05-24T18:57:47.919Z,12.73
2023-05-24T19:00:15.581Z,16.83
2023-05-24T19:02:42.440Z,11.23
2023-05-24T19:05:09.390Z,13.88
2023-05-24T19:07:36.935Z,14.68
2023-05-24T19:10:04.175Z,13.27
2023-05-24T19:12:34.898Z,12.65
2023-05-24T19:15:02.955Z,14.25
2023-05-24T19:17:29.694Z,18.88
2023-05-24T19:19:56.449Z,17.80
2023-05-24T19:22:23.102Z,17.02
2023-05-24T19:24:49.707Z,17.77
2023-05-24T19:27:17.191Z,18.70
2023-05-24T19:29:43.823Z,14.45
2023-05-24T19:32:11.591Z,15.43
2023-05-24T19:34:42.504Z,21.45
2023-05-24T19:37:09.693Z,21.83
2023-05-24T19:39:37.350Z,19.00
2023-05-24T19:42:05.028Z,24.02
2023-05-24T19:44:31.636Z,21.55
2023-05-24T19:46:58.265Z,15.02
2023-05-24T19:49:24.904Z,17.20
2023-05-24T19:51:52.436Z,50.80
2023-05-24T19:54:19.110Z,48.80
2023-05-24T19:56:50.883Z,36.10
2023-05-24T19:59:20.222Z,32.72
2023-05-24T20:01:49.457Z,39.70
2023-05-24T20:04:17.076Z,26.33
2023-05-24T20:06:43.837Z,23.73
2023-05-24T20:09:10.665Z,24.88
2023-05-24T20:11:38.014Z,19.77
2023-05-24T20:14:04.657Z,18.92
2023-05-24T20:16:31.569Z,17.88
2023-05-24T20:18:58.378Z,17.40
2023-05-24T20:21:25.104Z,21.45
2023-05-24T20:23:57.689Z,21.45
2023-05-24T20:26:26.120Z,82.20
2023-05-24T20:28:52.951Z,151.18
2023-05-24T20:31:19.899Z,67.30
2023-05-24T20:33:47.075Z,73.15
2023-05-24T20:36:15.215Z,50.35
2023-05-24T20:38:42.097Z,31.88
2023-05-24T20:41:08.884Z,23.20
2023-05-24T20:43:35.592Z,25.58
2023-05-24T20:46:02.324Z,27.25
2023-05-24T20:48:30.829Z,23.20
2023-05-24T20:50:57.666Z,19.20
2023-05-24T20:53:26.282Z,17.60
2023-05-24T20:55:54.857Z,18.67
2023-05-24T20:58:21.729Z,21.00
2023-05-24T21:00:48.706Z,21.38
2023-05-24T21:03:16.453Z,17.83
2023-05-24T21:05:43.407Z,17.10
2023-05-24T21:08:10.509Z,18.30
2023-05-24T21:10:39.164Z,17.17
2023-05-24T21:13:05.948Z,16.30
2023-05-24T21:15:32.630Z,18.80
2023-05-24T21:18:00.122Z,15.70
2023-05-24T21:20:26.991Z,18.13
2023-05-24T21:22:53.712Z,23.23
2023-05-24T21:25:20.595Z,43.25
2023-05-24T21:27:47.839Z,15.40
2023-05-24T21:30:14.705Z,14.85
2023-05-24T21:32:41.374Z,13.77
2023-05-24T21:35:08.391Z,13.70
2023-05-24T21:37:35.030Z,11.52
2023-05-24T21:40:02.482Z,13.25
2023-05-24T21:42:29.154Z,17.38
2023-05-24T21:44:55.806Z,13.20
2023-05-24T21:47:22.528Z,11.40
2023-05-24T21:49:50.957Z,10.90
2023-05-24T21:52:19.623Z,10.90
2023-05-24T21:54:47.204Z,11.95
2023-05-24T21:57:13.856Z,12.27
2023-05-24T21:59:40.533Z,13.13
2023-05-24T22:02:07.221Z,11.43
2023-05-24T22:04:33.947Z,13.63
2023-05-24T22:07:00.724Z,15.95
2023-05-24T22:09:28.248Z,13.63
2023-05-24T22:11:54.848Z,12.55
2023-05-24T22:14:21.459Z,14.52
2023-05-24T22:16:49.069Z,14.20
2023-05-24T22:19:38.909Z,13.63
2023-05-24T22:22:10.510Z,13.70
2023-05-24T22:24:37.384Z,12.20
2023-05-24T22:27:04.752Z,14.60
2023-05-24T22:29:32.244Z,14.38
2023-05-24T22:31:58.973Z,13.45
2023-05-24T22:34:27.657Z,11.88
2023-05-24T22:36:56.863Z,14.43
2023-05-24T22:39:24.138Z,13.68
2023-05-24T22:41:52.112Z,13.68
2023-05-24T22:44:18.878Z,14.88
2023-05-24T22:46:50.122Z,9.45
2023-05-24T22:49:20.330Z,13.57
2023-05-24T22:51:53.492Z,14.05
2023-05-24T22:54:20.416Z,13.15
2023-05-24T22:56:47.980Z,13.80
2023-05-24T22:59:14.724Z,14.52
2023-05-24T23:01:41.543Z,11.65
2023-05-24T23:04:20.761Z,12.95
2023-05-24T23:06:49.050Z,11.10
2023-05-24T23:09:18.403Z,14.75
2023-05-24T23:11:46.210Z,12.55
2023-05-24T23:14:14.398Z,11.85
2023-05-24T23:16:46.145Z,14.27
2023-05-24T23:19:18.718Z,11.77
2023-05-24T23:21:47.105Z,12.23
2023-05-24T23:24:16.036Z,13.98
2023-05-24T23:26:43.609Z,14.07
2023-05-24T23:29:11.370Z,12.35
2023-05-24T23:31:38.269Z,10.80
2023-05-24T23:34:05.725Z,13.85
2023-05-24T23:36:33.304Z,14.05
2023-05-24T23:39:00.192Z,13.07
2023-05-24T23:41:27.432Z,12.27
2023-05-24T23:43:54.217Z,13.68
2023-05-24T23:46:20.949Z,14.75
2023-05-24T23:48:47.734Z,12.02
2023-05-24T23:51:15.460Z,12.07
2023-05-24T23:53:43.024Z,14.50
2023-05-24T23:56:09.719Z,16.88
2023-05-24T23:58:37.847Z,13.95
